sensor_id;sensor_type;location;lat;lon;timestamp;P1;durP1;ratioP1;P2;durP2;ratioP2
80295;SDS011;69597;42.124;24.722;2023-04-25T06:58:55;10.63;;;5.00;;
80295;SDS011;69597;42.124;24.722;2023-04-25T07:01:21;8.80;;;5.10;;
80295;SDS011;69597;42.124;24.722;2023-04-25T07:03:46;10.90;;;5.03;;
80295;SDS011;69597;42.124;24.722;2023-04-25T07:06:12;10.23;;;4.80;;
80295;SDS011;69597;42.124;24.722;2023-04-25T07:08:37;9.63;;;5.00;;
80295;SDS011;69597;42.124;24.722;2023-04-25T07:11:03;9.48;;;5.07;;
80295;SDS011;69597;42.124;24.722;2023-04-25T07:13:29;10.02;;;5.38;;
80295;SDS011;69597;42.124;24.722;2023-04-25T07:15:55;24.33;;;18.85;;
80295;SDS011;69597;42.124;24.722;2023-04-25T07:18:21;21.33;;;16.10;;
80295;SDS011;69597;42.124;24.722;2023-04-25T07:20:47;16.17;;;11.15;;
80295;SDS011;69597;42.124;24.722;2023-04-25T07:23:13;39.38;;;35.00;;
80295;SDS011;69597;42.124;24.722;2023-04-25T07:25:38;48.80;;;40.65;;
80295;SDS011;69597;42.124;24.722;2023-04-25T07:28:04;35.10;;;26.42;;
80295;SDS011;69597;42.124;24.722;2023-04-25T07:30:30;23.80;;;17.88;;
80295;SDS011;69597;42.124;24.722;2023-04-25T07:32:56;21.33;;;15.15;;
80295;SDS011;69597;42.124;24.722;2023-04-25T07:35:21;19.80;;;13.60;;
80295;SDS011;69597;42.124;24.722;2023-04-25T07:37:47;15.48;;;9.75;;
80295;SDS011;69597;42.124;24.722;2023-04-25T07:40:13;16.13;;;10.57;;
80295;SDS011;69597;42.124;24.722;2023-04-25T07:42:40;14.02;;;9.70;;
80295;SDS011;69597;42.124;24.722;2023-04-25T07:45:06;15.80;;;9.48;;
80295;SDS011;69597;42.124;24.722;2023-04-25T07:47:32;15.77;;;9.98;;
80295;SDS011;69597;42.124;24.722;2023-04-25T07:49:58;16.15;;;9.32;;
80295;SDS011;69597;42.124;24.722;2023-04-25T07:52:23;15.38;;;9.10;;
80295;SDS011;69597;42.124;24.722;2023-04-25T07:54:49;14.77;;;9.55;;
80295;SDS011;69597;42.124;24.722;2023-04-25T07:57:15;13.95;;;8.75;;
80295;SDS011;69597;42.124;24.722;2023-04-25T07:59:42;17.65;;;8.88;;
80295;SDS011;69597;42.124;24.722;2023-04-25T08:02:07;15.20;;;9.35;;
80295;SDS011;69597;42.124;24.722;2023-04-25T08:04:33;15.15;;;8.85;;
80295;SDS011;69597;42.124;24.722;2023-04-25T08:06:59;12.75;;;8.40;;
80295;SDS011;69597;42.124;24.722;2023-04-25T08:09:25;12.30;;;8.55;;
80295;SDS011;69597;42.124;24.722;2023-04-25T08:11:51;14.57;;;8.52;;
80295;SDS011;69597;42.124;24.722;2023-04-25T08:14:16;15.02;;;8.60;;
80295;SDS011;69597;42.124;24.722;2023-04-25T08:16:42;12.38;;;8.70;;
80295;SDS011;69597;42.124;24.722;2023-04-25T08:19:09;13.52;;;8.48;;
80295;SDS011;69597;42.124;24.722;2023-04-25T08:21:35;16.83;;;9.07;;
80295;SDS011;69597;42.124;24.722;2023-04-25T08:24:03;11.90;;;7.93;;
80295;SDS011;69597;42.124;24.722;2023-04-25T08:26:29;15.48;;;8.90;;
80295;SDS011;69597;42.124;24.722;2023-04-25T08:28:55;12.65;;;8.13;;
80295;SDS011;69597;42.124;24.722;2023-04-25T08:31:20;12.10;;;8.02;;
80295;SDS011;69597;42.124;24.722;2023-04-25T08:33:46;11.93;;;7.80;;
80295;SDS011;69597;42.124;24.722;2023-04-25T08:36:12;12.40;;;8.75;;
80295;SDS011;69597;42.124;24.722;2023-04-25T08:38:37;14.45;;;8.25;;
80295;SDS011;69597;42.124;24.722;2023-04-25T08:41:03;12.10;;;8.13;;
80295;SDS011;69597;42.124;24.722;2023-04-25T08:43:31;14.10;;;7.90;;
80295;SDS011;69597;42.124;24.722;2023-04-25T08:46:00;11.80;;;7.75;;
80295;SDS011;69597;42.124;24.722;2023-04-25T08:48:27;12.48;;;7.72;;
80295;SDS011;69597;42.124;24.722;2023-04-25T08:50:55;11.02;;;7.30;;
80295;SDS011;69597;42.124;24.722;2023-04-25T08:53:29;11.88;;;7.65;;
80295;SDS011;69597;42.124;24.722;2023-04-25T08:55:59;11.05;;;7.43;;
80295;SDS011;69597;42.124;24.722;2023-04-25T08:58:29;11.27;;;7.70;;
80295;SDS011;69597;42.124;24.722;2023-04-25T09:00:55;10.57;;;7.32;;
80295;SDS011;69597;42.124;24.722;2023-04-25T09:03:21;11.38;;;7.55;;
80295;SDS011;69597;42.124;24.722;2023-04-25T09:05:47;12.07;;;7.47;;
80295;SDS011;69597;42.124;24.722;2023-04-25T09:08:12;12.23;;;7.57;;
80295;SDS011;69597;42.124;24.722;2023-04-25T09:10:40;10.45;;;7.07;;
80295;SDS011;69597;42.124;24.722;2023-04-25T09:13:07;10.80;;;7.28;;
80295;SDS011;69597;42.124;24.722;2023-04-25T09:15:48;11.60;;;7.22;;
80295;SDS011;69597;42.124;24.722;2023-04-25T09:18:24;9.50;;;7.18;;
80295;SDS011;69597;42.124;24.722;2023-04-25T09:20:54;11.55;;;7.32;;
80295;SDS011;69597;42.124;24.722;2023-04-25T09:23:21;11.00;;;7.10;;
80295;SDS011;69597;42.124;24.722;2023-04-25T09:25:48;10.55;;;7.10;;
80295;SDS011;69597;42.124;24.722;2023-04-25T09:28:16;13.02;;;6.93;;
80295;SDS011;69597;42.124;24.722;2023-04-25T09:30:47;9.73;;;6.82;;
80295;SDS011;69597;42.124;24.722;2023-04-25T09:33:13;15.57;;;7.10;;
80295;SDS011;69597;42.124;24.722;2023-04-25T09:35:43;11.35;;;7.15;;
80295;SDS011;69597;42.124;24.722;2023-04-25T09:38:14;11.13;;;7.00;;
80295;SDS011;69597;42.124;24.722;2023-04-25T09:40:41;10.60;;;6.82;;
80295;SDS011;69597;42.124;24.722;2023-04-25T09:43:29;9.07;;;6.68;;
80295;SDS011;69597;42.124;24.722;2023-04-25T09:45:54;10.43;;;7.07;;
80295;SDS011;69597;42.124;24.722;2023-04-25T09:48:24;10.18;;;6.93;;
80295;SDS011;69597;42.124;24.722;2023-04-25T09:53:39;9.35;;;6.35;;
80295;SDS011;69597;42.124;24.722;2023-04-25T09:56:10;8.88;;;6.57;;
80295;SDS011;69597;42.124;24.722;2023-04-25T09:58:37;9.73;;;6.35;;
80295;SDS011;69597;42.124;24.722;2023-04-25T10:01:05;8.88;;;6.53;;
80295;SDS011;69597;42.124;24.722;2023-04-25T10:03:41;11.15;;;6.60;;
80295;SDS011;69597;42.124;24.722;2023-04-25T10:06:18;10.30;;;6.57;;
80295;SDS011;69597;42.124;24.722;2023-04-25T10:08:45;8.93;;;6.45;;
80295;SDS011;69597;42.124;24.722;2023-04-25T10:11:16;9.02;;;6.47;;
80295;SDS011;69597;42.124;24.722;2023-04-25T10:13:42;10.80;;;6.50;;
80295;SDS011;69597;42.124;24.722;2023-04-25T10:16:09;9.53;;;6.50;;
80295;SDS011;69597;42.124;24.722;2023-04-25T10:18:35;8.77;;;6.40;;
80295;SDS011;69597;42.124;24.722;2023-04-25T10:21:03;9.45;;;6.57;;
80295;SDS011;69597;42.124;24.722;2023-04-25T10:25:56;8.82;;;6.30;;
80295;SDS011;69597;42.124;24.722;2023-04-25T10:28:22;10.27;;;6.50;;
80295;SDS011;69597;42.124;24.722;2023-04-25T10:31:30;10.60;;;6.38;;
80295;SDS011;69597;42.124;24.722;2023-04-25T10:33:41;9.18;;;6.47;;
80295;SDS011;69597;42.124;24.722;2023-04-25T10:36:11;8.45;;;6.07;;
80295;SDS011;69597;42.124;24.722;2023-04-25T10:38:39;9.32;;;6.25;;
80295;SDS011;69597;42.124;24.722;2023-04-25T10:41:05;9.50;;;6.40;;
80295;SDS011;69597;42.124;24.722;2023-04-25T10:46:03;8.63;;;6.00;;
80295;SDS011;69597;42.124;24.722;2023-04-25T10:48:38;8.63;;;6.22;;
80295;SDS011;69597;42.124;24.722;2023-04-25T10:51:20;10.45;;;6.22;;
80295;SDS011;69597;42.124;24.722;2023-04-25T10:56:21;9.57;;;6.22;;
80295;SDS011;69597;42.124;24.722;2023-04-25T10:58:48;8.73;;;6.05;;
80295;SDS011;69597;42.124;24.722;2023-04-25T11:01:14;7.78;;;5.72;;
80295;SDS011;69597;42.124;24.722;2023-04-25T11:03:45;8.45;;;5.85;;
80295;SDS011;69597;42.124;24.722;2023-04-25T11:09:09;7.85;;;5.80;;
80295;SDS011;69597;42.124;24.722;2023-04-25T11:11:38;8.77;;;5.63;;
80295;SDS011;69597;42.124;24.722;2023-04-25T11:14:04;8.52;;;5.93;;
80295;SDS011;69597;42.124;24.722;2023-04-25T11:16:30;7.93;;;5.60;;
80295;SDS011;69597;42.124;24.722;2023-04-25T11:18:57;9.27;;;5.60;;
80295;SDS011;69597;42.124;24.722;2023-04-25T11:21:24;7.97;;;5.70;;
80295;SDS011;69597;42.124;24.722;2023-04-25T11:23:52;8.10;;;5.47;;
80295;SDS011;69597;42.124;24.722;2023-04-25T11:26:19;7.93;;;5.73;;
80295;SDS011;69597;42.124;24.722;2023-04-25T11:28:45;8.13;;;5.72;;
80295;SDS011;69597;42.124;24.722;2023-04-25T11:31:12;8.65;;;5.35;;
80295;SDS011;69597;42.124;24.722;2023-04-25T11:33:37;8.80;;;5.90;;
80295;SDS011;69597;42.124;24.722;2023-04-25T11:36:05;7.63;;;5.45;;
80295;SDS011;69597;42.124;24.722;2023-04-25T11:38:31;8.07;;;5.57;;
80295;SDS011;69597;42.124;24.722;2023-04-25T11:40:57;7.90;;;5.40;;
80295;SDS011;69597;42.124;24.722;2023-04-25T11:43:23;8.15;;;5.78;;
80295;SDS011;69597;42.124;24.722;2023-04-25T11:45:50;7.65;;;5.30;;
80295;SDS011;69597;42.124;24.722;2023-04-25T11:48:17;8.90;;;5.50;;
80295;SDS011;69597;42.124;24.722;2023-04-25T11:50:43;9.38;;;5.72;;
80295;SDS011;69597;42.124;24.722;2023-04-25T11:53:10;7.45;;;5.13;;
80295;SDS011;69597;42.124;24.722;2023-04-25T11:55:36;8.38;;;5.15;;
80295;SDS011;69597;42.124;24.722;2023-04-25T11:58:02;7.28;;;5.07;;
80295;SDS011;69597;42.124;24.722;2023-04-25T12:00:29;8.33;;;5.30;;
80295;SDS011;69597;42.124;24.722;2023-04-25T12:02:56;7.60;;;5.05;;
80295;SDS011;69597;42.124;24.722;2023-04-25T12:05:27;7.80;;;5.30;;
80295;SDS011;69597;42.124;24.722;2023-04-25T12:07:54;7.28;;;5.40;;
80295;SDS011;69597;42.124;24.722;2023-04-25T12:10:20;7.78;;;4.97;;
80295;SDS011;69597;42.124;24.722;2023-04-25T12:12:47;6.78;;;4.90;;
80295;SDS011;69597;42.124;24.722;2023-04-25T12:15:14;7.00;;;4.97;;
80295;SDS011;69597;42.124;24.722;2023-04-25T12:17:48;6.90;;;4.90;;
80295;SDS011;69597;42.124;24.722;2023-04-25T12:20:16;8.23;;;5.53;;
80295;SDS011;69597;42.124;24.722;2023-04-25T12:22:44;7.75;;;5.38;;
80295;SDS011;69597;42.124;24.722;2023-04-25T12:25:12;7.50;;;5.05;;
80295;SDS011;69597;42.124;24.722;2023-04-25T12:27:38;7.70;;;4.95;;
80295;SDS011;69597;42.124;24.722;2023-04-25T12:30:07;7.10;;;5.05;;
80295;SDS011;69597;42.124;24.722;2023-04-25T12:32:36;7.40;;;5.10;;
80295;SDS011;69597;42.124;24.722;2023-04-25T12:35:05;6.97;;;4.60;;
80295;SDS011;69597;42.124;24.722;2023-04-25T12:37:31;7.45;;;4.88;;
80295;SDS011;69597;42.124;24.722;2023-04-25T12:39:57;6.88;;;4.75;;
80295;SDS011;69597;42.124;24.722;2023-04-25T12:42:22;7.03;;;4.85;;
80295;SDS011;69597;42.124;24.722;2023-04-25T12:44:48;7.22;;;4.97;;
80295;SDS011;69597;42.124;24.722;2023-04-25T12:47:14;6.95;;;4.80;;
80295;SDS011;69597;42.124;24.722;2023-04-25T12:49:39;7.00;;;4.78;;
80295;SDS011;69597;42.124;24.722;2023-04-25T12:52:05;7.75;;;4.82;;
80295;SDS011;69597;42.124;24.722;2023-04-25T12:54:31;7.15;;;5.10;;
80295;SDS011;69597;42.124;24.722;2023-04-25T12:56:57;7.10;;;4.93;;
80295;SDS011;69597;42.124;24.722;2023-04-25T12:59:23;6.90;;;4.65;;
80295;SDS011;69597;42.124;24.722;2023-04-25T13:01:48;6.85;;;4.88;;
80295;SDS011;69597;42.124;24.722;2023-04-25T13:04:14;7.80;;;4.78;;
80295;SDS011;69597;42.124;24.722;2023-04-25T13:06:40;6.93;;;4.70;;
80295;SDS011;69597;42.124;24.722;2023-04-25T13:09:06;6.70;;;4.40;;
80295;SDS011;69597;42.124;24.722;2023-04-25T13:11:32;7.60;;;4.78;;
80295;SDS011;69597;42.124;24.722;2023-04-25T13:13:58;7.63;;;4.55;;
80295;SDS011;69597;42.124;24.722;2023-04-25T13:16:23;6.60;;;4.53;;
80295;SDS011;69597;42.124;24.722;2023-04-25T13:18:49;7.10;;;4.47;;
80295;SDS011;69597;42.124;24.722;2023-04-25T13:21:17;6.55;;;4.65;;
80295;SDS011;69597;42.124;24.722;2023-04-25T13:23:43;6.80;;;4.38;;
80295;SDS011;69597;42.124;24.722;2023-04-25T13:26:11;7.78;;;4.75;;
80295;SDS011;69597;42.124;24.722;2023-04-25T13:28:36;6.57;;;4.60;;
80295;SDS011;69597;42.124;24.722;2023-04-25T13:31:02;6.55;;;4.32;;
80295;SDS011;69597;42.124;24.722;2023-04-25T13:33:28;6.28;;;4.43;;
80295;SDS011;69597;42.124;24.722;2023-04-25T13:35:54;7.65;;;4.28;;
80295;SDS011;69597;42.124;24.722;2023-04-25T13:38:21;6.43;;;4.40;;
80295;SDS011;69597;42.124;24.722;2023-04-25T13:40:48;7.25;;;4.70;;
80295;SDS011;69597;42.124;24.722;2023-04-25T13:43:17;6.45;;;4.25;;
80295;SDS011;69597;42.124;24.722;2023-04-25T13:45:43;6.82;;;4.60;;
80295;SDS011;69597;42.124;24.722;2023-04-25T13:48:09;6.50;;;4.10;;
80295;SDS011;69597;42.124;24.722;2023-04-25T13:50:35;6.30;;;4.10;;
80295;SDS011;69597;42.124;24.722;2023-04-25T13:53:01;6.85;;;4.40;;
80295;SDS011;69597;42.124;24.722;2023-04-25T13:55:26;6.75;;;4.40;;
80295;SDS011;69597;42.124;24.722;2023-04-25T13:57:52;6.10;;;4.00;;
80295;SDS011;69597;42.124;24.722;2023-04-25T14:00:18;5.85;;;4.00;;
80295;SDS011;69597;42.124;24.722;2023-04-25T14:02:43;6.35;;;3.95;;
80295;SDS011;69597;42.124;24.722;2023-04-25T14:05:09;6.18;;;3.92;;
80295;SDS011;69597;42.124;24.722;2023-04-25T14:07:35;5.90;;;4.03;;
80295;SDS011;69597;42.124;24.722;2023-04-25T14:10:01;6.80;;;4.15;;
80295;SDS011;69597;42.124;24.722;2023-04-25T14:12:27;7.05;;;3.90;;
80295;SDS011;69597;42.124;24.722;2023-04-25T14:14:53;6.53;;;4.10;;
80295;SDS011;69597;42.124;24.722;2023-04-25T14:17:19;6.82;;;4.60;;
80295;SDS011;69597;42.124;24.722;2023-04-25T14:19:45;8.68;;;3.90;;
80295;SDS011;69597;42.124;24.722;2023-04-25T14:22:12;8.77;;;3.97;;
80295;SDS011;69597;42.124;24.722;2023-04-25T14:24:39;12.98;;;4.88;;
80295;SDS011;69597;42.124;24.722;2023-04-25T14:27:05;8.10;;;4.20;;
80295;SDS011;69597;42.124;24.722;2023-04-25T14:29:31;10.25;;;4.05;;
80295;SDS011;69597;42.124;24.722;2023-04-25T14:31:57;7.88;;;4.00;;
80295;SDS011;69597;42.124;24.722;2023-04-25T14:34:24;7.77;;;4.37;;
80295;SDS011;69597;42.124;24.722;2023-04-25T14:36:50;6.82;;;3.85;;
80295;SDS011;69597;42.124;24.722;2023-04-25T14:39:16;7.22;;;3.95;;
80295;SDS011;69597;42.124;24.722;2023-04-25T14:41:43;8.48;;;3.83;;
80295;SDS011;69597;42.124;24.722;2023-04-25T14:44:09;11.70;;;4.20;;
80295;SDS011;69597;42.124;24.722;2023-04-25T14:46:35;11.55;;;4.10;;
80295;SDS011;69597;42.124;24.722;2023-04-25T14:49:01;9.32;;;4.03;;
80295;SDS011;69597;42.124;24.722;2023-04-25T14:51:28;9.45;;;3.90;;
80295;SDS011;69597;42.124;24.722;2023-04-25T14:53:54;9.40;;;3.88;;
80295;SDS011;69597;42.124;24.722;2023-04-25T14:56:20;8.20;;;4.00;;
80295;SDS011;69597;42.124;24.722;2023-04-25T14:58:46;6.88;;;3.70;;
80295;SDS011;69597;42.124;24.722;2023-04-25T15:01:15;6.82;;;3.78;;
80295;SDS011;69597;42.124;24.722;2023-04-25T15:03:41;6.38;;;3.70;;
80295;SDS011;69597;42.124;24.722;2023-04-25T15:06:06;6.85;;;3.50;;
80295;SDS011;69597;42.124;24.722;2023-04-25T15:08:32;6.47;;;3.50;;
80295;SDS011;69597;42.124;24.722;2023-04-25T15:10:58;6.72;;;3.60;;
80295;SDS011;69597;42.124;24.722;2023-04-25T15:13:25;7.53;;;4.07;;
80295;SDS011;69597;42.124;24.722;2023-04-25T15:15:51;6.88;;;3.55;;
80295;SDS011;69597;42.124;24.722;2023-04-25T15:18:19;7.32;;;3.90;;
80295;SDS011;69597;42.124;24.722;2023-04-25T15:20:52;6.63;;;3.70;;
80295;SDS011;69597;42.124;24.722;2023-04-25T15:23:19;6.10;;;3.70;;
80295;SDS011;69597;42.124;24.722;2023-04-25T15:25:46;8.13;;;3.85;;
80295;SDS011;69597;42.124;24.722;2023-04-25T15:28:12;5.68;;;3.38;;
80295;SDS011;69597;42.124;24.722;2023-04-25T15:30:41;6.25;;;3.60;;
80295;SDS011;69597;42.124;24.722;2023-04-25T15:33:08;6.10;;;3.65;;
80295;SDS011;69597;42.124;24.722;2023-04-25T15:35:33;5.50;;;3.38;;
80295;SDS011;69597;42.124;24.722;2023-04-25T15:38:02;5.72;;;3.70;;
80295;SDS011;69597;42.124;24.722;2023-04-25T15:40:27;6.18;;;3.90;;
80295;SDS011;69597;42.124;24.722;2023-04-25T15:42:53;6.03;;;3.72;;
80295;SDS011;69597;42.124;24.722;2023-04-25T15:45:22;7.65;;;3.67;;
80295;SDS011;69597;42.124;24.722;2023-04-25T15:47:50;5.47;;;3.20;;
80295;SDS011;69597;42.124;24.722;2023-04-25T15:50:19;6.28;;;3.40;;
80295;SDS011;69597;42.124;24.722;2023-04-25T15:52:47;6.32;;;3.58;;
80295;SDS011;69597;42.124;24.722;2023-04-25T15:55:14;5.80;;;3.47;;
80295;SDS011;69597;42.124;24.722;2023-04-25T15:57:41;6.20;;;3.63;;
80295;SDS011;69597;42.124;24.722;2023-04-25T16:00:10;6.82;;;3.28;;
80295;SDS011;69597;42.124;24.722;2023-04-25T16:02:41;6.88;;;3.35;;
80295;SDS011;69597;42.124;24.722;2023-04-25T16:05:08;6.75;;;3.20;;
80295;SDS011;69597;42.124;24.722;2023-04-25T16:07:35;5.30;;;3.15;;
80295;SDS011;69597;42.124;24.722;2023-04-25T16:10:04;5.63;;;3.13;;
80295;SDS011;69597;42.124;24.722;2023-04-25T16:12:30;6.05;;;3.30;;
80295;SDS011;69597;42.124;24.722;2023-04-25T16:14:56;5.95;;;3.30;;
80295;SDS011;69597;42.124;24.722;2023-04-25T16:17:25;5.88;;;3.50;;
80295;SDS011;69597;42.124;24.722;2023-04-25T16:19:53;6.88;;;3.20;;
80295;SDS011;69597;42.124;24.722;2023-04-25T16:22:19;6.10;;;3.33;;
80295;SDS011;69597;42.124;24.722;2023-04-25T16:24:45;6.72;;;3.70;;
80295;SDS011;69597;42.124;24.722;2023-04-25T16:27:10;6.63;;;3.72;;
80295;SDS011;69597;42.124;24.722;2023-04-25T16:29:36;6.70;;;4.47;;
80295;SDS011;69597;42.124;24.722;2023-04-25T16:32:03;13.98;;;4.63;;
80295;SDS011;69597;42.124;24.722;2023-04-25T16:34:29;9.50;;;4.55;;
80295;SDS011;69597;42.124;24.722;2023-04-25T16:36:55;11.60;;;5.32;;
80295;SDS011;69597;42.124;24.722;2023-04-25T16:39:21;12.43;;;5.32;;
80295;SDS011;69597;42.124;24.722;2023-04-25T16:41:47;11.95;;;5.20;;
80295;SDS011;69597;42.124;24.722;2023-04-25T16:44:13;11.20;;;4.65;;
80295;SDS011;69597;42.124;24.722;2023-04-25T16:46:39;10.27;;;4.25;;
80295;SDS011;69597;42.124;24.722;2023-04-25T16:49:05;9.95;;;5.00;;
80295;SDS011;69597;42.124;24.722;2023-04-25T16:51:31;8.10;;;4.63;;
80295;SDS011;69597;42.124;24.722;2023-04-25T16:54:01;6.65;;;4.07;;
80295;SDS011;69597;42.124;24.722;2023-04-25T16:56:26;6.65;;;3.42;;
80295;SDS011;69597;42.124;24.722;2023-04-25T16:58:52;6.93;;;3.47;;
80295;SDS011;69597;42.124;24.722;2023-04-25T17:01:18;6.88;;;3.15;;
80295;SDS011;69597;42.124;24.722;2023-04-25T17:03:45;6.57;;;3.30;;
80295;SDS011;69597;42.124;24.722;2023-04-25T17:06:12;6.57;;;3.40;;
80295;SDS011;69597;42.124;24.722;2023-04-25T17:08:38;5.82;;;3.80;;
80295;SDS011;69597;42.124;24.722;2023-04-25T17:11:04;6.32;;;3.22;;
80295;SDS011;69597;42.124;24.722;2023-04-25T17:13:30;7.60;;;3.20;;
80295;SDS011;69597;42.124;24.722;2023-04-25T17:15:57;9.38;;;4.60;;
80295;SDS011;69597;42.124;24.722;2023-04-25T17:18:26;11.07;;;4.55;;
80295;SDS011;69597;42.124;24.722;2023-04-25T17:20:52;8.32;;;4.22;;
80295;SDS011;69597;42.124;24.722;2023-04-25T17:23:19;8.53;;;4.20;;
80295;SDS011;69597;42.124;24.722;2023-04-25T17:25:45;9.15;;;4.00;;
80295;SDS011;69597;42.124;24.722;2023-04-25T17:28:11;6.68;;;4.25;;
80295;SDS011;69597;42.124;24.722;2023-04-25T17:30:39;8.07;;;4.30;;
80295;SDS011;69597;42.124;24.722;2023-04-25T17:33:06;7.85;;;4.07;;
80295;SDS011;69597;42.124;24.722;2023-04-25T17:35:32;7.38;;;4.10;;
80295;SDS011;69597;42.124;24.722;2023-04-25T17:37:58;7.68;;;4.15;;
80295;SDS011;69597;42.124;24.722;2023-04-25T17:40:24;6.70;;;3.65;;
80295;SDS011;69597;42.124;24.722;2023-04-25T17:42:53;6.88;;;4.00;;
80295;SDS011;69597;42.124;24.722;2023-04-25T17:45:18;6.82;;;3.90;;
80295;SDS011;69597;42.124;24.722;2023-04-25T17:47:50;8.18;;;3.78;;
80295;SDS011;69597;42.124;24.722;2023-04-25T17:50:16;6.10;;;3.50;;
80295;SDS011;69597;42.124;24.722;2023-04-25T17:52:42;6.05;;;3.78;;
80295;SDS011;69597;42.124;24.722;2023-04-25T17:55:09;6.82;;;3.60;;
80295;SDS011;69597;42.124;24.722;2023-04-25T17:57:35;5.55;;;3.22;;
80295;SDS011;69597;42.124;24.722;2023-04-25T18:00:00;6.40;;;3.63;;
80295;SDS011;69597;42.124;24.722;2023-04-25T18:02:27;6.50;;;3.80;;
80295;SDS011;69597;42.124;24.722;2023-04-25T18:04:53;6.18;;;3.45;;
80295;SDS011;69597;42.124;24.722;2023-04-25T18:07:19;6.63;;;3.80;;
80295;SDS011;69597;42.124;24.722;2023-04-25T18:09:45;5.90;;;3.35;;
80295;SDS011;69597;42.124;24.722;2023-04-25T18:12:10;5.10;;;3.00;;
80295;SDS011;69597;42.124;24.722;2023-04-25T18:14:38;5.47;;;2.92;;
80295;SDS011;69597;42.124;24.722;2023-04-25T18:17:05;7.88;;;3.00;;
80295;SDS011;69597;42.124;24.722;2023-04-25T18:19:32;6.47;;;3.03;;
80295;SDS011;69597;42.124;24.722;2023-04-25T18:21:59;6.00;;;3.00;;
80295;SDS011;69597;42.124;24.722;2023-04-25T18:24:25;15.63;;;3.25;;
80295;SDS011;69597;42.124;24.722;2023-04-25T18:26:51;11.45;;;3.08;;
80295;SDS011;69597;42.124;24.722;2023-04-25T18:29:18;5.88;;;3.00;;
80295;SDS011;69597;42.124;24.722;2023-04-25T18:31:45;6.05;;;3.33;;
80295;SDS011;69597;42.124;24.722;2023-04-25T18:34:11;6.75;;;3.10;;
80295;SDS011;69597;42.124;24.722;2023-04-25T18:36:37;5.75;;;2.90;;
80295;SDS011;69597;42.124;24.722;2023-04-25T18:39:04;6.47;;;2.95;;
80295;SDS011;69597;42.124;24.722;2023-04-25T18:41:31;6.10;;;2.97;;
80295;SDS011;69597;42.124;24.722;2023-04-25T18:44:00;6.20;;;3.30;;
80295;SDS011;69597;42.124;24.722;2023-04-25T18:46:28;5.28;;;2.90;;
80295;SDS011;69597;42.124;24.722;2023-04-25T18:48:54;4.88;;;2.83;;
80295;SDS011;69597;42.124;24.722;2023-04-25T18:51:20;5.40;;;2.80;;
80295;SDS011;69597;42.124;24.722;2023-04-25T18:53:47;6.32;;;2.90;;
80295;SDS011;69597;42.124;24.722;2023-04-25T18:56:13;6.72;;;3.17;;
80295;SDS011;69597;42.124;24.722;2023-04-25T18:58:39;6.53;;;2.72;;
80295;SDS011;69597;42.124;24.722;2023-04-25T19:01:06;6.40;;;2.80;;
80295;SDS011;69597;42.124;24.722;2023-04-25T19:03:33;5.82;;;2.88;;
80295;SDS011;69597;42.124;24.722;2023-04-25T19:05:59;7.15;;;2.97;;
80295;SDS011;69597;42.124;24.722;2023-04-25T19:08:26;7.32;;;2.97;;
80295;SDS011;69597;42.124;24.722;2023-04-25T19:10:52;6.65;;;2.90;;
80295;SDS011;69597;42.124;24.722;2023-04-25T19:13:18;7.55;;;2.78;;
80295;SDS011;69597;42.124;24.722;2023-04-25T19:15:47;7.13;;;3.03;;
80295;SDS011;69597;42.124;24.722;2023-04-25T19:18:13;7.50;;;3.13;;
80295;SDS011;69597;42.124;24.722;2023-04-25T19:20:39;7.30;;;2.80;;
80295;SDS011;69597;42.124;24.722;2023-04-25T19:23:05;6.55;;;3.05;;
80295;SDS011;69597;42.124;24.722;2023-04-25T19:25:32;6.68;;;2.72;;
80295;SDS011;69597;42.124;24.722;2023-04-25T19:27:58;8.17;;;3.00;;
80295;SDS011;69597;42.124;24.722;2023-04-25T19:30:25;5.20;;;2.90;;
80295;SDS011;69597;42.124;24.722;2023-04-25T19:32:53;5.78;;;2.72;;
80295;SDS011;69597;42.124;24.722;2023-04-25T19:35:20;5.15;;;2.75;;
80295;SDS011;69597;42.124;24.722;2023-04-25T19:37:46;6.70;;;2.60;;
80295;SDS011;69597;42.124;24.722;2023-04-25T19:40:12;5.65;;;2.75;;
80295;SDS011;69597;42.124;24.722;2023-04-25T19:42:39;5.28;;;2.60;;
80295;SDS011;69597;42.124;24.722;2023-04-25T19:45:05;7.60;;;3.00;;
80295;SDS011;69597;42.124;24.722;2023-04-25T19:47:31;5.55;;;2.80;;
80295;SDS011;69597;42.124;24.722;2023-04-25T19:49:57;6.20;;;2.70;;
80295;SDS011;69597;42.124;24.722;2023-04-25T19:52:23;6.97;;;3.10;;
80295;SDS011;69597;42.124;24.722;2023-04-25T19:54:48;6.93;;;3.00;;
80295;SDS011;69597;42.124;24.722;2023-04-25T19:57:18;6.03;;;3.10;;
80295;SDS011;69597;42.124;24.722;2023-04-25T19:59:44;6.88;;;3.20;;
80295;SDS011;69597;42.124;24.722;2023-04-25T20:02:12;9.30;;;2.88;;
80295;SDS011;69597;42.124;24.722;2023-04-25T20:04:37;5.88;;;2.88;;
80295;SDS011;69597;42.124;24.722;2023-04-25T20:07:03;7.93;;;3.22;;
80295;SDS011;69597;42.124;24.722;2023-04-25T20:09:29;7.18;;;3.15;;
80295;SDS011;69597;42.124;24.722;2023-04-25T20:11:55;8.13;;;3.05;;
80295;SDS011;69597;42.124;24.722;2023-04-25T20:14:21;10.70;;;3.20;;
80295;SDS011;69597;42.124;24.722;2023-04-25T20:16:47;14.90;;;4.32;;
80295;SDS011;69597;42.124;24.722;2023-04-25T20:19:12;13.60;;;4.40;;
80295;SDS011;69597;42.124;24.722;2023-04-25T20:21:38;17.05;;;4.07;;
80295;SDS011;69597;42.124;24.722;2023-04-25T20:24:04;15.82;;;4.53;;
80295;SDS011;69597;42.124;24.722;2023-04-25T20:26:30;15.68;;;3.63;;
80295;SDS011;69597;42.124;24.722;2023-04-25T20:28:58;15.47;;;3.90;;
80295;SDS011;69597;42.124;24.722;2023-04-25T20:31:24;13.70;;;3.67;;
80295;SDS011;69597;42.124;24.722;2023-04-25T20:33:50;7.57;;;3.45;;
80295;SDS011;69597;42.124;24.722;2023-04-25T20:36:16;11.35;;;3.53;;
80295;SDS011;69597;42.124;24.722;2023-04-25T20:38:43;11.18;;;3.42;;
80295;SDS011;69597;42.124;24.722;2023-04-25T20:41:09;9.98;;;3.47;;
80295;SDS011;69597;42.124;24.722;2023-04-25T20:43:36;10.75;;;3.47;;
80295;SDS011;69597;42.124;24.722;2023-04-25T20:46:04;12.55;;;3.58;;
80295;SDS011;69597;42.124;24.722;2023-04-25T20:48:30;11.15;;;3.63;;
80295;SDS011;69597;42.124;24.722;2023-04-25T20:50:55;9.52;;;3.50;;
80295;SDS011;69597;42.124;24.722;2023-04-25T20:53:22;10.10;;;3.58;;
80295;SDS011;69597;42.124;24.722;2023-04-25T20:55:48;10.15;;;3.42;;
80295;SDS011;69597;42.124;24.722;2023-04-25T20:58:13;8.60;;;3.35;;
80295;SDS011;69597;42.124;24.722;2023-04-25T21:00:39;12.07;;;4.60;;
80295;SDS011;69597;42.124;24.722;2023-04-25T21:03:05;9.90;;;3.28;;
80295;SDS011;69597;42.124;24.722;2023-04-25T21:05:31;8.43;;;3.60;;
80295;SDS011;69597;42.124;24.722;2023-04-25T21:07:57;14.98;;;3.20;;
80295;SDS011;69597;42.124;24.722;2023-04-25T21:10:23;9.18;;;3.47;;
80295;SDS011;69597;42.124;24.722;2023-04-25T21:12:49;8.95;;;3.22;;
80295;SDS011;69597;42.124;24.722;2023-04-25T21:15:16;7.50;;;3.22;;
80295;SDS011;69597;42.124;24.722;2023-04-25T21:17:44;8.63;;;3.15;;
80295;SDS011;69597;42.124;24.722;2023-04-25T21:20:11;9.18;;;3.38;;
80295;SDS011;69597;42.124;24.722;2023-04-25T21:22:39;7.38;;;3.17;;
80295;SDS011;69597;42.124;24.722;2023-04-25T21:25:12;7.70;;;3.13;;
80295;SDS011;69597;42.124;24.722;2023-04-25T21:27:48;8.88;;;3.20;;
80295;SDS011;69597;42.124;24.722;2023-04-25T21:30:15;9.18;;;3.10;;
80295;SDS011;69597;42.124;24.722;2023-04-25T21:32:43;10.52;;;3.58;;
80295;SDS011;69597;42.124;24.722;2023-04-25T21:35:10;10.17;;;2.90;;
80295;SDS011;69597;42.124;24.722;2023-04-25T21:37:37;6.73;;;3.20;;
80295;SDS011;69597;42.124;24.722;2023-04-25T21:40:02;13.13;;;3.38;;